Terminal Aerodrome Forecast
Issued by NWS

Home | Current Version | Previous Version | Text Only | Print | Product List | Glossary On
Versions: 1 2 3 4 5 6 7 8 9 10 11 12 13 14
198
FTUS44 KEWX 252004 AAA
TAFSSF
TAF AMD
KSSF 252004Z 2520/2618 12007KT P6SM VCTS BKN050CB
      TEMPO 2521/2522 TSRA OVC030CB
     FM252300 01009KT P6SM VCTS BKN035CB
     FM260200 36010KT P6SM BKN025
     FM261200 34006KT P6SM FEW250=

USA.gov is the U.S. government's official web portal to all federal, state and local government web resources and services.